createdAt,value
2022-09-12T00:00:55.496Z,9.278127
2022-09-12T00:01:55.455Z,9.278241
2022-09-12T00:02:55.447Z,9.278274
2022-09-12T00:03:55.420Z,9.278256
2022-09-12T00:04:55.373Z,9.278049
2022-09-12T00:05:55.373Z,9.278337
2022-09-12T00:06:55.339Z,9.278356
2022-09-12T00:07:55.370Z,9.278358
2022-09-12T00:08:55.301Z,9.278328
2022-09-12T00:09:55.342Z,9.278385
2022-09-12T00:10:55.308Z,9.278348
2022-09-12T00:11:55.258Z,9.278332
2022-09-12T00:12:55.266Z,9.278298
2022-09-12T00:13:55.234Z,9.278205
2022-09-12T00:14:55.233Z,9.278266
2022-09-12T00:15:55.183Z,9.278235
2022-09-12T00:16:55.207Z,9.278262
2022-09-12T00:17:55.210Z,9.278166
2022-09-12T00:18:55.134Z,9.278284
2022-09-12T00:19:55.133Z,9.278333
2022-09-12T00:20:55.128Z,9.278189
2022-09-12T00:21:55.080Z,9.278214
2022-09-12T00:22:55.097Z,9.278198
2022-09-12T00:23:55.053Z,9.278481
2022-09-12T00:24:55.040Z,9.278429
2022-09-12T00:25:55.067Z,9.278398
2022-09-12T00:26:55.009Z,9.278344
2022-09-12T00:27:55.029Z,9.278451
2022-09-12T00:28:54.962Z,9.278625
2022-09-12T00:29:54.949Z,9.278560
2022-09-12T00:30:54.942Z,9.278320
2022-09-12T00:31:54.948Z,9.278154
2022-09-12T00:32:54.922Z,9.278037
2022-09-12T00:33:54.886Z,9.278230
2022-09-12T00:34:54.873Z,9.278346
2022-09-12T00:35:54.848Z,9.278331
2022-09-12T00:36:54.810Z,9.278399
2022-09-12T00:37:54.830Z,9.278321
2022-09-12T00:38:54.865Z,9.278197
2022-09-12T00:39:54.807Z,9.278206
2022-09-12T00:40:54.758Z,9.278382
2022-09-12T00:41:54.747Z,9.278421
2022-09-12T00:42:54.755Z,9.278250
2022-09-12T00:43:54.720Z,9.278328
2022-09-12T00:44:54.688Z,9.278349
2022-09-12T00:45:54.720Z,9.278550
2022-09-12T00:46:54.691Z,9.278554
2022-09-12T00:47:54.680Z,9.278507
2022-09-12T00:48:54.639Z,9.278464
2022-09-12T00:49:54.608Z,9.278477
2022-09-12T00:50:54.595Z,9.278289
2022-09-12T00:51:54.603Z,9.278517
2022-09-12T00:52:54.630Z,9.278529
2022-09-12T00:53:54.531Z,9.278654
2022-09-12T00:54:54.523Z,9.278391
2022-09-12T00:55:54.505Z,9.278403
2022-09-12T00:56:54.491Z,9.278631
2022-09-12T00:57:54.504Z,9.278661
2022-09-12T00:58:54.455Z,9.278371
2022-09-12T00:59:54.521Z,9.278215
2022-09-12T01:00:54.670Z,9.278354
2022-09-12T01:01:54.491Z,9.278194
2022-09-12T01:02:54.433Z,9.278286
2022-09-12T01:03:54.383Z,9.278291
2022-09-12T01:04:54.359Z,9.278200
2022-09-12T01:05:54.348Z,9.278281
2022-09-12T01:06:54.360Z,9.278364
2022-09-12T01:07:54.345Z,9.278346
2022-09-12T01:08:54.319Z,9.278316
2022-09-12T01:09:54.273Z,9.278338
2022-09-12T01:10:54.280Z,9.278374
2022-09-12T01:11:54.244Z,9.278327
2022-09-12T01:12:54.260Z,9.278263
2022-09-12T01:13:54.214Z,9.278197
2022-09-12T01:14:54.204Z,9.278372
2022-09-12T01:15:54.178Z,9.278432
2022-09-12T01:16:54.177Z,9.278334
2022-09-12T01:17:54.184Z,9.278339
2022-09-12T01:18:54.128Z,9.278317
2022-09-12T01:19:54.104Z,9.278494
2022-09-12T01:20:54.092Z,9.278385
2022-09-12T01:21:54.073Z,9.278366
2022-09-12T01:22:54.110Z,9.278321
2022-09-12T01:23:54.052Z,9.278348
2022-09-12T01:24:54.024Z,9.278285
2022-09-12T01:25:54.027Z,9.278302
2022-09-12T01:26:53.985Z,9.278274
2022-09-12T01:27:54.007Z,9.278328
2022-09-12T01:28:53.956Z,9.278300
2022-09-12T01:29:53.957Z,9.278249
2022-09-12T01:30:53.917Z,9.278296
2022-09-12T01:31:53.925Z,9.278304
2022-09-12T01:32:53.926Z,9.278293
2022-09-12T01:33:53.875Z,9.278350
2022-09-12T01:34:53.852Z,9.278369
2022-09-12T01:35:53.838Z,9.278393
2022-09-12T01:36:53.820Z,9.278419
2022-09-12T01:37:53.829Z,9.278434
2022-09-12T01:38:53.781Z,9.278348
2022-09-12T01:39:53.858Z,9.278324
2022-09-12T01:40:53.741Z,9.278404
2022-09-12T01:41:53.737Z,9.278450
2022-09-12T01:42:53.742Z,9.278320
2022-09-12T01:43:53.692Z,9.278330
2022-09-12T01:44:53.702Z,9.278317
2022-09-12T01:45:53.712Z,9.278477
2022-09-12T01:46:53.660Z,9.278393
2022-09-12T01:47:53.670Z,9.278396
2022-09-12T01:48:53.626Z,9.278384
2022-09-12T01:49:54.614Z,9.278333
2022-09-12T01:50:53.593Z,9.278308
2022-09-12T01:51:53.594Z,9.278345
2022-09-12T01:52:53.600Z,9.278361
2022-09-12T01:53:53.528Z,9.278394
2022-09-12T01:54:53.518Z,9.278312
2022-09-12T01:55:53.520Z,9.278264
2022-09-12T01:56:53.473Z,9.278212
2022-09-12T01:57:54.499Z,9.278308
2022-09-12T01:58:53.444Z,9.278258
2022-09-12T01:59:53.439Z,9.278228
2022-09-12T02:00:53.448Z,9.278322
2022-09-12T02:01:53.435Z,9.278304
2022-09-12T02:02:53.372Z,9.278362
2022-09-12T02:03:53.389Z,9.278354
2022-09-12T02:04:53.342Z,9.278304
2022-09-12T02:05:53.335Z,9.278361
2022-09-12T02:06:53.323Z,9.278308
2022-09-12T02:07:53.296Z,9.278380
2022-09-12T02:08:53.309Z,9.278312
2022-09-12T02:09:53.263Z,9.278297
2022-09-12T02:10:53.263Z,9.278222
2022-09-12T02:11:53.234Z,9.278318
2022-09-12T02:12:53.227Z,9.278377
2022-09-12T02:13:53.237Z,9.278332
2022-09-12T02:14:53.186Z,9.278322
2022-09-12T02:15:53.157Z,9.278361
2022-09-12T02:16:53.152Z,9.278325
2022-09-12T02:17:53.149Z,9.278318
2022-09-12T02:18:53.141Z,9.278272
2022-09-12T02:19:53.098Z,9.278350
2022-09-12T02:20:53.114Z,9.278311
2022-09-12T02:21:53.079Z,9.278375
2022-09-12T02:22:53.093Z,9.278394
2022-09-12T02:23:53.074Z,9.278250
2022-09-12T02:24:53.009Z,9.278216
2022-09-12T02:25:53.104Z,9.278283
2022-09-12T02:26:53.017Z,9.278342
2022-09-12T02:27:52.991Z,9.278331
2022-09-12T02:28:52.981Z,9.278404
2022-09-12T02:29:52.932Z,9.278347
2022-09-12T02:30:52.964Z,9.278313
2022-09-12T02:31:52.894Z,9.278273
2022-09-12T02:32:52.868Z,9.278240
2022-09-12T02:33:52.885Z,9.278418
2022-09-12T02:34:52.840Z,9.278383
2022-09-12T02:35:52.824Z,9.278428
2022-09-12T02:36:52.801Z,9.278439
2022-09-12T02:37:52.798Z,9.278298
2022-09-12T02:38:52.931Z,9.278352
2022-09-12T02:39:52.773Z,9.278414
2022-09-12T02:40:52.752Z,9.278419
2022-09-12T02:41:52.714Z,9.278269
2022-09-12T02:42:52.721Z,9.278272
2022-09-12T02:43:52.720Z,9.278299
2022-09-12T02:44:52.695Z,9.278267
2022-09-12T02:45:52.677Z,9.278193
2022-09-12T02:46:52.637Z,9.278219
2022-09-12T02:47:52.623Z,9.278246
2022-09-12T02:48:52.648Z,9.278157
2022-09-12T02:49:52.581Z,9.278167
2022-09-12T02:50:52.586Z,9.278135
2022-09-12T02:51:52.546Z,9.278303
2022-09-12T02:52:52.539Z,9.278161
2022-09-12T02:53:52.551Z,9.278271
2022-09-12T02:54:52.518Z,9.278239
2022-09-12T02:55:52.497Z,9.278179
2022-09-12T02:56:52.504Z,9.278156
2022-09-12T02:57:52.477Z,9.278219
2022-09-12T02:58:52.463Z,9.278344
2022-09-12T02:59:52.427Z,9.278287
2022-09-12T03:00:52.465Z,9.278334
2022-09-12T03:01:52.434Z,9.278242
2022-09-12T03:02:52.389Z,9.278454
2022-09-12T03:03:53.382Z,9.278474
2022-09-12T03:04:52.351Z,9.278415
2022-09-12T03:05:52.329Z,9.278309
2022-09-12T03:06:52.320Z,9.278362
2022-09-12T03:07:52.294Z,9.278413
2022-09-12T03:08:52.330Z,9.278234
2022-09-12T03:09:52.264Z,9.278311
2022-09-12T03:10:52.243Z,9.278274
2022-09-12T03:11:52.222Z,9.278263
2022-09-12T03:12:52.200Z,9.278277
2022-09-12T03:13:52.228Z,9.278241
2022-09-12T03:14:52.179Z,9.278193
2022-09-12T03:15:52.171Z,9.278316
2022-09-12T03:16:52.139Z,9.278325
2022-09-12T03:17:52.137Z,9.278316
2022-09-12T03:18:52.144Z,9.278358
2022-09-12T03:19:52.094Z,9.278260
2022-09-12T03:20:52.071Z,9.278295
2022-09-12T03:21:52.058Z,9.278405
2022-09-12T03:22:52.044Z,9.278341
2022-09-12T03:23:52.081Z,9.278301
2022-09-12T03:24:52.029Z,9.278326
2022-09-12T03:25:51.990Z,9.278252
2022-09-12T03:26:51.975Z,9.278210
2022-09-12T03:27:51.951Z,9.278311
2022-09-12T03:28:51.967Z,9.278277
2022-09-12T03:29:51.923Z,9.278296
2022-09-12T03:30:51.942Z,9.278328
2022-09-12T03:31:51.887Z,9.278342
2022-09-12T03:32:51.882Z,9.278281
2022-09-12T03:33:51.892Z,9.278284
2022-09-12T03:34:51.844Z,9.278424
2022-09-12T03:35:51.824Z,9.278172
2022-09-12T03:36:51.810Z,9.278118
2022-09-12T03:37:51.787Z,9.278250
2022-09-12T03:38:51.801Z,9.278322
2022-09-12T03:39:51.782Z,9.278316
2022-09-12T03:40:54.805Z,9.278412
2022-09-12T03:41:52.717Z,9.278276
2022-09-12T03:42:51.705Z,9.278205
2022-09-12T03:43:51.712Z,9.278273
2022-09-12T03:44:51.669Z,9.278252
2022-09-12T03:45:51.663Z,9.278244
2022-09-12T03:46:51.634Z,9.278242
2022-09-12T03:47:51.641Z,9.278225
2022-09-12T03:48:51.636Z,9.278243
2022-09-12T03:49:51.588Z,9.278272
2022-09-12T03:50:51.561Z,9.278393
2022-09-12T03:51:51.553Z,9.278197
2022-09-12T03:52:51.532Z,9.278181
2022-09-12T03:53:51.541Z,9.278199
2022-09-12T03:54:51.491Z,9.278174
2022-09-12T03:55:51.479Z,9.278179
2022-09-12T03:56:51.464Z,9.278208
2022-09-12T03:57:51.455Z,9.278225
2022-09-12T03:58:51.463Z,9.278242
2022-09-12T03:59:51.418Z,9.278255
2022-09-12T04:00:51.441Z,9.278242
2022-09-12T04:01:51.451Z,9.278239
2022-09-12T04:02:51.369Z,9.278275
2022-09-12T04:03:51.398Z,9.278290
2022-09-12T04:04:51.358Z,9.278263
2022-09-12T04:05:51.307Z,9.278212
2022-09-12T04:06:51.301Z,9.278251
2022-09-12T04:07:51.297Z,9.278267
2022-09-12T04:08:51.361Z,9.278232
2022-09-12T04:09:51.269Z,9.278251
2022-09-12T04:10:51.227Z,9.278250
2022-09-12T04:11:51.226Z,9.278260
2022-09-12T04:12:51.207Z,9.278301
2022-09-12T04:13:51.220Z,9.278213
2022-09-12T04:14:51.162Z,9.278238
2022-09-12T04:15:51.151Z,9.278214
2022-09-12T04:16:51.216Z,9.278206
2022-09-12T04:17:51.122Z,9.278213
2022-09-12T04:18:51.124Z,9.278220
2022-09-12T04:19:51.086Z,9.278174
2022-09-12T04:20:51.052Z,9.278236
2022-09-12T04:21:51.045Z,9.278167
2022-09-12T04:22:51.037Z,9.278077
2022-09-12T04:23:51.047Z,9.278179
2022-09-12T04:24:50.986Z,9.278180
2022-09-12T04:25:50.971Z,9.278154
2022-09-12T04:26:50.988Z,9.278152
2022-09-12T04:27:50.933Z,9.278187
2022-09-12T04:28:50.952Z,9.278196
2022-09-12T04:29:50.900Z,9.278175
2022-09-12T04:30:50.977Z,9.278196
2022-09-12T04:31:50.864Z,9.278141
2022-09-12T04:32:50.864Z,9.278240
2022-09-12T04:33:50.872Z,9.278123
2022-09-12T04:34:50.826Z,9.278150
2022-09-12T04:35:50.794Z,9.278142
2022-09-12T04:36:50.795Z,9.278130
2022-09-12T04:37:50.758Z,9.278084
2022-09-12T04:38:50.769Z,9.278180
2022-09-12T04:39:50.877Z,9.278148
2022-09-12T04:40:50.715Z,9.278242
2022-09-12T04:41:50.691Z,9.278219
2022-09-12T04:42:50.680Z,9.278253
2022-09-12T04:43:50.691Z,9.278278
2022-09-12T04:44:50.647Z,9.278248
2022-09-12T04:45:50.674Z,9.278231
2022-09-12T04:46:50.607Z,9.278172
2022-09-12T04:47:50.616Z,9.278247
2022-09-12T04:48:54.601Z,9.278242
2022-09-12T04:49:52.565Z,9.278272
2022-09-12T04:50:50.548Z,9.278182
2022-09-12T04:51:50.538Z,9.278182
2022-09-12T04:52:50.503Z,9.278194
2022-09-12T04:53:50.522Z,9.278223
2022-09-12T04:54:50.460Z,9.278228
2022-09-12T04:55:51.460Z,9.278192
2022-09-12T04:56:50.463Z,9.278210
2022-09-12T04:57:50.426Z,9.278211
2022-09-12T04:58:50.452Z,9.278191
2022-09-12T04:59:50.396Z,9.278135
2022-09-12T05:00:50.358Z,9.278265
2022-09-12T05:01:50.397Z,9.278592
2022-09-12T05:02:50.355Z,9.278692
2022-09-12T05:03:50.346Z,9.278333
2022-09-12T05:04:50.297Z,9.278032
2022-09-12T05:05:53.305Z,9.278043
2022-09-12T05:06:52.268Z,9.277916
2022-09-12T05:07:50.246Z,9.278206
2022-09-12T05:08:50.267Z,9.278399
2022-09-12T05:09:50.200Z,9.278357
2022-09-12T05:10:50.230Z,9.278266
2022-09-12T05:12:05.940Z,9.278352
2022-09-12T05:12:52.161Z,9.278202
2022-09-12T05:13:50.193Z,9.278234
2022-09-12T05:14:50.132Z,9.278184
2022-09-12T05:15:50.109Z,9.278177
2022-09-12T05:16:50.146Z,9.278085
2022-09-12T05:17:50.075Z,9.278152
2022-09-12T05:18:50.103Z,9.278242
2022-09-12T05:19:50.039Z,9.278507
2022-09-12T05:20:50.047Z,9.278522
2022-09-12T05:21:50.001Z,9.278308
2022-09-12T05:22:49.993Z,9.278290
2022-09-12T05:23:50.001Z,9.278349
2022-09-12T05:24:50.650Z,9.278290
2022-09-12T05:25:50.941Z,9.278172
2022-09-12T05:26:49.917Z,9.278213
2022-09-12T05:27:50.591Z,9.278220
2022-09-12T05:28:50.923Z,9.278246
2022-09-12T05:29:50.872Z,9.278211
2022-09-12T05:30:49.860Z,9.278217
2022-09-12T05:31:49.840Z,9.278405
2022-09-12T05:32:49.814Z,9.278432
2022-09-12T05:33:49.826Z,9.278380
2022-09-12T05:34:49.782Z,9.278286
2022-09-12T05:35:49.766Z,9.278291
2022-09-12T05:36:49.770Z,9.278216
2022-09-12T05:37:49.729Z,9.278174
2022-09-12T05:38:49.737Z,9.278280
2022-09-12T05:39:49.724Z,9.278296
2022-09-12T05:40:49.670Z,9.278212
2022-09-12T05:41:49.651Z,9.278381
2022-09-12T05:42:49.635Z,9.278285
2022-09-12T05:43:49.658Z,9.278275
2022-09-12T05:44:49.618Z,9.278278
2022-09-12T05:45:49.617Z,9.278284
2022-09-12T05:46:49.585Z,9.278206
2022-09-12T05:47:49.590Z,9.278297
2022-09-12T05:48:53.710Z,9.278293
2022-09-12T05:49:51.529Z,9.278315
2022-09-12T05:50:49.512Z,9.278314
2022-09-12T05:51:49.519Z,9.278277
2022-09-12T05:52:49.478Z,9.278256
2022-09-12T05:53:49.538Z,9.278316
2022-09-12T05:54:49.488Z,9.278283
2022-09-12T05:55:49.420Z,9.278320
2022-09-12T05:56:49.425Z,9.278301
2022-09-12T05:57:49.374Z,9.278278
2022-09-12T05:58:49.393Z,9.278262
2022-09-12T05:59:49.336Z,9.278217
2022-09-12T06:00:49.323Z,9.278280
2022-09-12T06:01:49.444Z,9.278254
2022-09-12T06:02:49.292Z,9.278155
2022-09-12T06:03:49.313Z,9.278255
2022-09-12T06:04:49.278Z,9.278170
2022-09-12T06:05:50.738Z,9.278171
2022-09-12T06:06:50.287Z,9.278201
2022-09-12T06:07:49.222Z,9.278161
2022-09-12T06:08:49.304Z,9.278149
2022-09-12T06:09:49.180Z,9.278132
2022-09-12T06:10:49.155Z,9.278299
2022-09-12T06:11:49.157Z,9.278378
2022-09-12T06:12:49.152Z,9.278284
2022-09-12T06:13:49.148Z,9.278310
2022-09-12T06:14:49.106Z,9.278360
2022-09-12T06:15:49.090Z,9.278348
2022-09-12T06:16:49.103Z,9.278391
2022-09-12T06:17:51.395Z,9.278367
2022-09-12T06:18:50.074Z,9.278297
2022-09-12T06:19:49.018Z,9.278286
2022-09-12T06:20:49.005Z,9.278300
2022-09-12T06:21:48.980Z,9.278389
2022-09-12T06:22:48.985Z,9.278365
2022-09-12T06:23:48.972Z,9.278337
2022-09-12T06:24:48.951Z,9.278230
2022-09-12T06:25:48.903Z,9.278269
2022-09-12T06:26:48.891Z,9.278134
2022-09-12T06:27:49.879Z,9.278244
2022-09-12T06:28:48.899Z,9.278211
2022-09-12T06:29:48.928Z,9.278307
2022-09-12T06:30:48.941Z,9.278337
2022-09-12T06:31:48.821Z,9.278201
2022-09-12T06:32:48.802Z,9.278217
2022-09-12T06:33:48.846Z,9.278147
2022-09-12T06:34:48.798Z,9.278185
2022-09-12T06:35:48.783Z,9.278233
2022-09-12T06:36:48.730Z,9.278211
2022-09-12T06:37:48.717Z,9.278171
2022-09-12T06:38:48.742Z,9.278120
2022-09-12T06:39:48.776Z,9.277989
2022-09-12T06:40:48.762Z,9.277708
2022-09-12T06:41:48.657Z,9.277568
2022-09-12T06:42:48.640Z,9.277912
2022-09-12T06:43:48.703Z,9.278017
2022-09-12T06:44:48.648Z,9.278079
2022-09-12T06:45:48.710Z,9.278069
2022-09-12T06:46:48.588Z,9.278237
2022-09-12T06:47:48.592Z,9.278400
2022-09-12T06:48:48.723Z,9.278406
2022-09-12T06:49:48.552Z,9.278520
2022-09-12T06:50:48.515Z,9.278477
2022-09-12T06:51:48.510Z,9.278477
2022-09-12T06:52:48.508Z,9.278477
2022-09-12T06:53:48.517Z,9.278477
2022-09-12T06:54:48.470Z,9.278413
2022-09-12T06:55:48.475Z,9.278297
2022-09-12T06:56:48.430Z,9.278297
2022-09-12T06:57:48.401Z,9.278336
2022-09-12T06:58:48.455Z,9.278118
2022-09-12T06:59:48.371Z,9.278926
2022-09-12T07:00:48.360Z,9.278678
2022-09-12T07:01:48.421Z,9.278329
2022-09-12T07:02:48.330Z,9.278275
2022-09-12T07:03:48.339Z,9.278262
2022-09-12T07:04:48.287Z,9.278305
2022-09-12T07:05:48.303Z,9.278207
2022-09-12T07:06:48.255Z,9.278227
2022-09-12T07:07:48.249Z,9.278259
2022-09-12T07:08:48.274Z,9.278250
2022-09-12T07:09:48.213Z,9.278307
2022-09-12T07:10:48.198Z,9.278236
2022-09-12T07:11:48.175Z,9.278259
2022-09-12T07:12:48.168Z,9.278311
2022-09-12T07:13:48.166Z,9.278226
2022-09-12T07:14:48.134Z,9.277930
2022-09-12T07:15:48.109Z,9.277987
2022-09-12T07:16:48.176Z,9.278348
2022-09-12T07:17:48.080Z,9.278401
2022-09-12T07:18:48.096Z,9.278370
2022-09-12T07:19:48.074Z,9.278334
2022-09-12T07:20:48.032Z,9.278224
2022-09-12T07:21:48.012Z,9.278182
2022-09-12T07:22:48.008Z,9.278251
2022-09-12T07:23:48.281Z,9.278258
2022-09-12T07:24:47.980Z,9.278194
2022-09-12T07:25:47.965Z,9.278182
2022-09-12T07:26:47.963Z,9.278247
2022-09-12T07:27:51.095Z,9.278280
2022-09-12T07:28:48.967Z,9.278228
2022-09-12T07:29:47.917Z,9.278316
2022-09-12T07:30:47.984Z,9.278362
2022-09-12T07:31:47.865Z,9.278380
2022-09-12T07:32:47.871Z,9.278294
2022-09-12T07:33:52.361Z,9.278373
2022-09-12T07:34:49.851Z,9.278401
2022-09-12T07:35:47.821Z,9.278441
2022-09-12T07:36:47.792Z,9.278366
2022-09-12T07:37:47.792Z,9.278311
2022-09-12T07:38:47.896Z,9.278273
2022-09-12T07:39:47.780Z,9.278261
2022-09-12T07:40:47.732Z,9.278255
2022-09-12T07:41:47.723Z,9.278275
2022-09-12T07:42:47.699Z,9.278337
2022-09-12T07:43:47.889Z,9.278244
2022-09-12T07:44:47.684Z,9.278188
2022-09-12T07:45:47.701Z,9.278149
2022-09-12T07:46:47.649Z,9.278240
2022-09-12T07:47:47.663Z,9.278199
2022-09-12T07:48:47.660Z,9.278272
2022-09-12T07:49:47.667Z,9.278346
2022-09-12T07:50:47.641Z,9.278247
2022-09-12T07:51:47.656Z,9.278330
2022-09-12T07:52:47.560Z,9.278221
2022-09-12T07:53:47.733Z,9.278273
2022-09-12T07:54:47.526Z,9.278219
2022-09-12T07:55:47.539Z,9.278288
2022-09-12T07:56:47.497Z,9.278238
2022-09-12T07:57:47.481Z,9.278289
2022-09-12T07:58:47.557Z,9.278230
2022-09-12T07:59:52.773Z,9.278204
2022-09-12T08:00:49.443Z,9.278239
2022-09-12T08:01:47.436Z,9.278216
2022-09-12T08:02:47.431Z,9.278228
2022-09-12T08:03:47.594Z,9.278208
2022-09-12T08:04:47.376Z,9.278227
2022-09-12T08:05:47.369Z,9.278184
2022-09-12T08:06:47.353Z,9.278142
2022-09-12T08:07:47.336Z,9.278106
2022-09-12T08:08:47.356Z,9.278201
2022-09-12T08:09:47.310Z,9.278087
2022-09-12T08:10:47.395Z,9.278137
2022-09-12T08:11:47.278Z,9.278173
2022-09-12T08:12:47.268Z,9.278342
2022-09-12T08:13:49.635Z,9.278307
2022-09-12T08:14:48.253Z,9.278039
2022-09-12T08:15:47.246Z,9.278148
2022-09-12T08:16:47.235Z,9.278258
2022-09-12T08:17:47.200Z,9.278278
2022-09-12T08:18:47.210Z,9.278269
2022-09-12T08:19:47.167Z,9.278290
2022-09-12T08:20:47.168Z,9.278318
2022-09-12T08:21:47.136Z,9.278363
2022-09-12T08:22:47.130Z,9.278325
2022-09-12T08:23:47.295Z,9.278275
2022-09-12T08:24:47.102Z,9.278277
2022-09-12T08:25:47.097Z,9.278255
2022-09-12T08:26:47.101Z,9.278261
2022-09-12T08:27:47.067Z,9.278247
2022-09-12T08:28:47.095Z,9.278222
2022-09-12T08:29:47.034Z,9.278180
2022-09-12T08:30:47.073Z,9.278198
2022-09-12T08:31:47.009Z,9.278258
2022-09-12T08:32:47.032Z,9.278292
2022-09-12T08:33:47.104Z,9.278322
2022-09-12T08:34:46.980Z,9.278289
2022-09-12T08:35:46.937Z,9.278358
2022-09-12T08:36:46.925Z,9.278407
2022-09-12T08:37:46.926Z,9.278394
2022-09-12T08:38:46.948Z,9.278335
2022-09-12T08:39:46.905Z,9.278330
2022-09-12T08:40:46.897Z,9.278300
2022-09-12T08:41:46.866Z,9.278156
2022-09-12T08:42:46.840Z,9.278133
2022-09-12T08:43:46.924Z,9.278301
2022-09-12T08:44:46.817Z,9.278430
2022-09-12T08:45:47.837Z,9.278724
2022-09-12T08:46:47.127Z,9.278552
2022-09-12T08:47:46.773Z,9.278899
2022-09-12T08:48:46.815Z,9.278756
2022-09-12T08:49:46.754Z,9.278631
2022-09-12T08:50:49.849Z,9.278476
2022-09-12T08:51:47.715Z,9.278372
2022-09-12T08:52:46.708Z,9.278341
2022-09-12T08:53:47.298Z,9.278338
2022-09-12T08:54:46.700Z,9.278408
2022-09-12T08:55:46.668Z,9.278358
2022-09-12T08:56:46.654Z,9.278380
2022-09-12T08:57:46.646Z,9.278312
2022-09-12T08:58:46.655Z,9.278376
2022-09-12T08:59:46.618Z,9.278429
2022-09-12T09:00:46.592Z,9.278388
2022-09-12T09:01:52.539Z,9.278466
2022-09-12T09:02:47.677Z,9.278224
2022-09-12T09:03:46.670Z,9.278332
2022-09-12T09:04:46.553Z,9.278461
2022-09-12T09:05:46.522Z,9.278417
2022-09-12T09:06:46.515Z,9.278480
2022-09-12T09:07:46.491Z,9.278549
2022-09-12T09:08:46.506Z,9.278375
2022-09-12T09:09:46.472Z,9.278618
2022-09-12T09:10:46.447Z,9.278611
2022-09-12T09:11:46.468Z,9.278614
2022-09-12T09:12:46.420Z,9.278552
2022-09-12T09:13:46.562Z,9.278512
2022-09-12T09:14:46.392Z,9.278461
2022-09-12T09:15:46.411Z,9.278450
2022-09-12T09:16:46.375Z,9.278506
2022-09-12T09:17:46.353Z,9.278558
2022-09-12T09:18:46.366Z,9.278584
2022-09-12T09:19:50.109Z,9.278486
2022-09-12T09:20:47.334Z,9.278397
2022-09-12T09:21:46.330Z,9.278428
2022-09-12T09:22:46.275Z,9.278406
2022-09-12T09:23:46.367Z,9.278391
2022-09-12T09:24:46.259Z,9.278364
2022-09-12T09:25:46.239Z,9.278363
2022-09-12T09:26:46.211Z,9.278379
2022-09-12T09:27:46.211Z,9.278358
2022-09-12T09:28:46.210Z,9.278393
2022-09-12T09:29:46.160Z,9.278363
2022-09-12T09:30:46.184Z,9.278499
2022-09-12T09:31:46.146Z,9.278419
2022-09-12T09:32:46.150Z,9.278336
2022-09-12T09:33:46.237Z,9.278392
2022-09-12T09:34:46.098Z,9.278506
2022-09-12T09:35:46.094Z,9.278440
2022-09-12T09:36:46.061Z,9.278332
2022-09-12T09:37:46.056Z,9.278349
2022-09-12T09:38:46.194Z,9.278309
2022-09-12T09:39:46.062Z,9.278308
2022-09-12T09:40:45.995Z,9.278342
2022-09-12T09:41:45.989Z,9.278320
2022-09-12T09:42:45.972Z,9.278352
2022-09-12T09:43:45.986Z,9.278349
2022-09-12T09:44:45.938Z,9.278399
2022-09-12T09:45:47.867Z,9.278296
2022-09-12T09:46:46.945Z,9.278328
2022-09-12T09:47:45.888Z,9.278339
2022-09-12T09:48:46.023Z,9.278361
2022-09-12T09:49:45.955Z,9.278384
2022-09-12T09:50:46.842Z,9.278349
2022-09-12T09:51:45.832Z,9.278327
2022-09-12T09:52:45.818Z,9.278366
2022-09-12T09:53:45.870Z,9.278349
2022-09-12T09:54:45.783Z,9.278321
2022-09-12T09:55:45.775Z,9.278315
2022-09-12T09:56:45.748Z,9.278284
2022-09-12T09:57:45.758Z,9.278323
2022-09-12T09:58:45.847Z,9.278364
2022-09-12T09:59:45.707Z,9.278243
2022-09-12T10:00:45.688Z,9.278297
2022-09-12T10:01:45.701Z,9.278296
2022-09-12T10:02:45.724Z,9.278264
2022-09-12T10:03:45.681Z,9.278338
2022-09-12T10:04:45.639Z,9.278317
2022-09-12T10:05:45.619Z,9.278325
2022-09-12T10:06:45.606Z,9.278310
2022-09-12T10:07:45.600Z,9.278334
2022-09-12T10:08:45.664Z,9.278341
2022-09-12T10:09:45.557Z,9.278318
2022-09-12T10:10:45.566Z,9.278268
2022-09-12T10:11:46.116Z,9.278306
2022-09-12T10:12:46.530Z,9.278314
2022-09-12T10:13:45.554Z,9.278309
2022-09-12T10:14:45.477Z,9.278319
2022-09-12T10:15:45.538Z,9.278301
2022-09-12T10:16:45.459Z,9.278279
2022-09-12T10:17:45.442Z,9.278311
2022-09-12T10:18:45.886Z,9.278334
2022-09-12T10:19:49.855Z,9.278334
2022-09-12T10:20:46.384Z,9.278350
2022-09-12T10:21:45.375Z,9.278370
2022-09-12T10:22:45.381Z,9.278355
2022-09-12T10:23:45.461Z,9.278367
2022-09-12T10:24:45.344Z,9.278411
2022-09-12T10:25:45.326Z,9.278364
2022-09-12T10:26:45.289Z,9.278359
2022-09-12T10:27:45.288Z,9.278379
2022-09-12T10:28:45.437Z,9.278344
2022-09-12T10:29:45.254Z,9.278366
2022-09-12T10:30:45.302Z,9.278333
2022-09-12T10:31:45.223Z,9.278382
2022-09-12T10:32:45.226Z,9.278335
2022-09-12T10:33:45.274Z,9.278283
2022-09-12T10:34:45.178Z,9.278377
2022-09-12T10:35:45.162Z,9.278260
2022-09-12T10:36:45.158Z,9.278224
2022-09-12T10:37:48.328Z,9.278343
2022-09-12T10:38:46.157Z,9.278304
2022-09-12T10:39:45.172Z,9.278239
2022-09-12T10:40:45.126Z,9.278262
2022-09-12T10:41:45.081Z,9.278207
2022-09-12T10:42:45.080Z,9.278222
2022-09-12T10:43:45.095Z,9.278269
2022-09-12T10:44:45.039Z,9.278251
2022-09-12T10:45:45.058Z,9.278291
2022-09-12T10:46:45.004Z,9.278209
2022-09-12T10:47:44.993Z,9.278269
2022-09-12T10:48:45.006Z,9.278288
2022-09-12T10:49:44.968Z,9.278277
2022-09-12T10:50:44.943Z,9.278330
2022-09-12T10:51:44.955Z,9.278296
2022-09-12T10:52:44.911Z,9.278319
2022-09-12T10:53:45.002Z,9.278285
2022-09-12T10:54:44.877Z,9.278345
2022-09-12T10:55:44.860Z,9.278313
2022-09-12T10:56:44.866Z,9.278302
2022-09-12T10:57:44.832Z,9.278349
2022-09-12T10:58:44.966Z,9.278271
2022-09-12T10:59:44.813Z,9.278262
2022-09-12T11:00:44.796Z,9.278232
2022-09-12T11:01:44.864Z,9.278216
2022-09-12T11:02:44.828Z,9.278270
2022-09-12T11:03:44.786Z,9.278254
2022-09-12T11:04:44.734Z,9.278307
2022-09-12T11:05:44.741Z,9.278310
2022-09-12T11:06:44.738Z,9.278298
2022-09-12T11:07:44.709Z,9.278285
2022-09-12T11:08:44.707Z,9.278203
2022-09-12T11:09:44.654Z,9.278282
2022-09-12T11:10:44.665Z,9.278311
2022-09-12T11:11:44.617Z,9.278325
2022-09-12T11:12:44.599Z,9.278367
2022-09-12T11:13:44.627Z,9.278288
2022-09-12T11:14:44.587Z,9.278262
2022-09-12T11:15:44.644Z,9.278234
2022-09-12T11:16:44.549Z,9.278270
2022-09-12T11:17:44.525Z,9.278415
2022-09-12T11:18:44.538Z,9.278415
2022-09-12T11:19:44.497Z,9.278595
2022-09-12T11:20:44.474Z,9.278576
2022-09-12T11:21:44.500Z,9.278397
2022-09-12T11:22:44.441Z,9.278461
2022-09-12T11:23:44.487Z,9.278348
2022-09-12T11:24:44.413Z,9.278330
2022-09-12T11:25:44.405Z,9.278322
2022-09-12T11:26:44.388Z,9.278489
2022-09-12T11:27:44.382Z,9.278358
2022-09-12T11:28:47.253Z,9.278296
2022-09-12T11:29:45.389Z,9.278392
2022-09-12T11:30:44.354Z,9.278378
2022-09-12T11:31:44.366Z,9.278366
2022-09-12T11:32:44.302Z,9.278313
2022-09-12T11:33:44.500Z,9.278276
2022-09-12T11:34:44.263Z,9.278374
2022-09-12T11:35:44.294Z,9.278358
2022-09-12T11:36:44.255Z,9.278275
2022-09-12T11:37:44.252Z,9.278361
2022-09-12T11:38:44.263Z,9.278351
2022-09-12T11:39:44.229Z,9.278318
2022-09-12T11:40:44.163Z,9.278383
2022-09-12T11:41:44.157Z,9.278346
2022-09-12T11:42:44.139Z,9.278353
2022-09-12T11:43:44.160Z,9.278359
2022-09-12T11:44:44.124Z,9.278347